KSMD/SMD METAR and TAF weather

Enter ICAO airport designator
Station Type Date Time Source
KSMD METAR 2021/05/11 15:55 UTC NOAA

KSMD 111555Z AUTO 30013KT 10SM FEW050 10/M01 A3032 RMK A01


Station Type Date Time Source
KSMD Decoded METAR 2021/05/11 15:55 UTC NOAA

Station name not available
May 11, 2021 - 11:55 AM EDT / 2021.05.11 1555 UTC
Wind: from the WNW (300 degrees) at 15 MPH (13 KT):0
Visibility: 10 mile(s):0
Sky conditions: mostly clear
Temperature: 50 F (10 C)
Dew Point: 30 F (-1 C)
Relative Humidity: 46%
Pressure (altimeter): 30.32 in. Hg (1026 hPa)
ob: KSMD 111555Z AUTO 30013KT 10SM FEW050 10/M01 A3032 RMK A01
cycle: 16

Station Type Date Time Source
KSMD TAF UTC NOAA

Error!

Example: see airport list